Time;durP1;ratioP1;P1;durP2;ratioP2;P2;SDS_P1;SDS_P2;PMS_P1;PMS_P2;Temp;Humidity;BMP_temperature;BMP_pressure;BME280_temperature;BME280_humidity;BME280_pressure;Samples;Min_cycle;Max_cycle;Signal;HPM_P1;HPM_P2
2022/10/08 00:02:13;;;;;;;6.73;2.50;;;10.80;99.90;;;;;;5094197;28;20208;-57
2022/10/08 00:04:40;;;;;;;9.27;2.37;;;10.90;99.90;;;;;;5094003;28;20253;-57
2022/10/08 00:07:07;;;;;;;8.40;2.30;;;10.90;99.90;;;;;;5093810;28;20201;-54
2022/10/08 00:09:33;;;;;;;8.80;2.60;;;10.90;99.90;;;;;;5093551;28;20232;-54
2022/10/08 00:12:00;;;;;;;9.57;3.00;;;10.90;99.90;;;;;;5093868;28;20232;-56
2022/10/08 00:14:28;;;;;;;9.47;3.13;;;10.90;99.90;;;;;;5093733;28;20561;-57
2022/10/08 00:16:55;;;;;;;8.57;2.87;;;10.90;99.90;;;;;;5093293;28;20678;-56
2022/10/08 00:19:21;;;;;;;9.67;2.53;;;11.00;99.90;;;;;;5093453;28;20227;-56
2022/10/08 00:21:52;;;;;;;9.63;2.63;;;11.00;99.90;;;;;;5093483;28;20204;-53
2022/10/08 00:24:20;;;;;;;10.37;2.60;;;11.00;99.90;;;;;;5093329;28;20251;-52
2022/10/08 00:26:46;;;;;;;10.13;2.30;;;11.00;99.90;;;;;;5093139;28;20299;-55
2022/10/08 00:29:15;;;;;;;9.53;2.43;;;11.00;99.90;;;;;;5093307;28;20236;-56
2022/10/08 00:31:45;;;;;;;9.13;2.70;;;11.00;99.90;;;;;;5093224;28;20216;-56
2022/10/08 00:34:14;;;;;;;7.23;2.57;;;11.10;99.90;;;;;;5093225;28;20200;-55
2022/10/08 00:36:41;;;;;;;8.40;3.10;;;11.00;99.90;;;;;;5092845;28;20208;-56
2022/10/08 00:39:12;;;;;;;5.43;2.50;;;11.00;99.90;;;;;;5093163;28;20634;-56
2022/10/08 00:41:40;;;;;;;13.17;2.93;;;11.10;99.90;;;;;;5093216;28;20662;-54
2022/10/08 00:44:44;;;;;;;13.33;3.07;;;11.10;99.90;;;;;;5093176;28;20663;-56
2022/10/08 00:47:15;;;;;;;8.60;2.77;;;11.10;99.90;;;;;;5092919;28;20603;-56
2022/10/08 00:49:42;;;;;;;7.03;2.33;;;11.10;99.90;;;;;;5093082;28;20262;-54
2022/10/08 00:52:09;;;;;;;10.93;2.87;;;11.10;99.90;;;;;;5093125;28;20274;-53
2022/10/08 00:54:36;;;;;;;13.17;2.60;;;11.10;99.90;;;;;;5092902;28;20204;-58
2022/10/08 00:57:02;;;;;;;9.77;2.37;;;11.20;99.90;;;;;;5092485;28;20208;-56
2022/10/08 00:59:29;;;;;;;10.33;2.20;;;11.20;99.90;;;;;;5093280;28;20281;-55
2022/10/08 01:01:56;;;;;;;9.80;2.50;;;11.20;99.90;;;;;;5093755;28;20575;-56
2022/10/08 01:04:24;;;;;;;9.23;2.23;;;11.20;99.90;;;;;;5093481;28;20200;-54
2022/10/08 01:06:59;;;;;;;6.43;2.93;;;11.20;99.90;;;;;;5092714;28;20206;-51
2022/10/08 01:09:32;;;;;;;11.23;2.70;;;11.10;99.90;;;;;;5092672;28;20224;-56
2022/10/08 01:12:09;;;;;;;8.47;2.73;;;11.10;99.90;;;;;;5092499;28;20224;-56
2022/10/08 01:14:48;;;;;;;7.97;2.80;;;11.00;99.90;;;;;;5092722;28;20231;-55
2022/10/08 01:17:23;;;;;;;9.17;2.47;;;11.00;99.90;;;;;;5092457;28;20233;-54
2022/10/08 01:20:15;;;;;;;9.03;2.70;;;10.90;99.90;;;;;;5092341;28;20285;-56
2022/10/08 01:22:59;;;;;;;9.10;2.70;;;10.80;99.90;;;;;;5092673;28;20196;-54
2022/10/08 01:25:36;;;;;;;9.17;2.63;;;10.80;99.90;;;;;;5092161;28;20273;-53
2022/10/08 01:28:11;;;;;;;6.53;2.20;;;10.70;99.90;;;;;;5092605;28;20240;-56
2022/10/08 01:30:44;;;;;;;12.57;3.20;;;10.70;99.90;;;;;;5092613;28;20215;-53
2022/10/08 01:33:16;;;;;;;3.50;2.30;;;10.60;99.90;;;;;;5092995;28;20231;-56
2022/10/08 01:35:45;;;;;;;10.73;3.20;;;10.50;99.90;;;;;;5093078;28;20226;-56
2022/10/08 01:38:16;;;;;;;5.50;2.50;;;10.50;99.90;;;;;;5092298;28;20235;-56
2022/10/08 01:40:45;;;;;;;8.77;2.93;;;10.50;99.90;;;;;;5092359;28;20203;-56
2022/10/08 01:43:16;;;;;;;7.77;2.63;;;10.50;99.90;;;;;;5092194;28;20233;-56
2022/10/08 01:45:49;;;;;;;8.13;2.53;;;10.50;99.90;;;;;;5092319;28;20296;-56
2022/10/08 01:48:21;;;;;;;7.17;2.37;;;10.40;99.90;;;;;;5092118;28;20627;-53
2022/10/08 01:50:53;;;;;;;6.33;2.60;;;10.40;99.90;;;;;;5092005;28;20212;-56
2022/10/08 01:53:22;;;;;;;9.27;2.57;;;10.40;99.90;;;;;;5092008;28;20315;-54
2022/10/08 01:55:52;;;;;;;8.70;2.60;;;10.40;99.90;;;;;;5092321;28;20287;-55
2022/10/08 01:58:27;;;;;;;7.80;2.83;;;10.40;99.90;;;;;;5091963;28;20717;-55
2022/10/08 02:00:57;;;;;;;15.03;2.70;;;10.50;99.90;;;;;;5091912;28;20199;-55
2022/10/08 02:03:24;;;;;;;12.40;2.57;;;10.50;99.90;;;;;;5092145;28;20284;-54
2022/10/08 02:05:54;;;;;;;9.77;2.83;;;10.60;99.90;;;;;;5091891;28;20298;-55
2022/10/08 02:08:22;;;;;;;9.33;3.07;;;10.70;99.90;;;;;;5092520;28;20230;-56
2022/10/08 02:10:50;;;;;;;11.13;2.80;;;10.70;99.90;;;;;;5095930;28;20674;-56
2022/10/08 02:13:17;;;;;;;7.80;2.80;;;10.70;99.90;;;;;;5096121;28;20228;-55
2022/10/08 02:15:50;;;;;;;8.30;2.87;;;10.70;99.90;;;;;;5095963;28;20200;-56
2022/10/08 02:18:19;;;;;;;8.87;2.43;;;10.80;99.90;;;;;;5095549;28;20219;-56
2022/10/08 02:20:52;;;;;;;11.37;2.50;;;10.80;99.90;;;;;;5095685;28;20208;-56
2022/10/08 02:23:24;;;;;;;7.07;2.43;;;10.80;99.90;;;;;;5096021;28;20204;-55
2022/10/08 02:25:54;;;;;;;8.17;3.00;;;10.90;99.90;;;;;;5095683;28;20215;-56
2022/10/08 02:28:28;;;;;;;11.27;3.00;;;10.90;99.90;;;;;;5095907;28;20228;-54
2022/10/08 02:31:02;;;;;;;10.47;3.10;;;11.00;99.90;;;;;;5095657;28;20245;-56
2022/10/08 02:33:33;;;;;;;9.10;3.10;;;11.00;99.90;;;;;;5095952;28;20314;-54
2022/10/08 02:36:03;;;;;;;8.53;2.40;;;11.00;99.90;;;;;;5095571;28;20204;-56
2022/10/08 02:38:35;;;;;;;6.23;2.40;;;11.10;99.90;;;;;;5095241;28;20224;-53
2022/10/08 02:41:04;;;;;;;7.67;2.63;;;11.10;99.90;;;;;;5095550;28;20291;-56
2022/10/08 02:43:35;;;;;;;8.33;2.43;;;11.10;99.90;;;;;;5095732;28;20241;-55
2022/10/08 02:46:08;;;;;;;12.20;2.80;;;11.20;99.90;;;;;;5095099;28;20204;-53
2022/10/08 02:48:36;;;;;;;11.43;2.53;;;11.20;99.90;;;;;;5095340;28;20231;-55
2022/10/08 02:51:06;;;;;;;10.33;2.30;;;11.30;99.90;;;;;;5095320;28;20205;-55
2022/10/08 02:53:36;;;;;;;7.63;2.40;;;11.30;99.90;;;;;;5095566;28;20224;-51
2022/10/08 02:56:11;;;;;;;9.73;2.53;;;11.40;99.90;;;;;;5094897;28;20258;-51
2022/10/08 02:58:37;;;;;;;15.80;2.83;;;11.50;99.90;;;;;;5095493;28;20443;-50
2022/10/08 03:01:13;;;;;;;5.80;1.80;;;11.50;99.90;;;;;;5095312;28;20763;-48
2022/10/08 03:03:43;;;;;;;7.93;2.50;;;11.60;99.90;;;;;;5095113;28;20204;-52
2022/10/08 03:06:12;;;;;;;8.17;2.40;;;11.60;99.90;;;;;;5095005;28;20259;-49
2022/10/08 03:08:44;;;;;;;8.13;2.07;;;11.60;99.90;;;;;;5094878;28;20232;-52
2022/10/08 03:11:11;;;;;;;6.83;2.30;;;11.70;99.90;;;;;;5094772;28;20247;-51
2022/10/08 03:13:41;;;;;;;11.87;2.37;;;11.70;99.90;;;;;;5095046;28;20229;-51
2022/10/08 03:16:13;;;;;;;10.23;2.60;;;11.70;99.90;;;;;;5094633;28;20702;-48
2022/10/08 03:18:41;;;;;;;9.67;2.50;;;11.80;99.90;;;;;;5094753;28;20221;-50
2022/10/08 03:21:09;;;;;;;8.17;2.10;;;11.90;99.90;;;;;;5094663;28;20209;-55
2022/10/08 03:23:36;;;;;;;7.40;2.10;;;11.90;99.90;;;;;;5094949;28;20209;-51
2022/10/08 03:26:03;;;;;;;8.33;1.87;;;12.00;99.90;;;;;;5094356;28;20216;-48
2022/10/08 03:28:30;;;;;;;8.13;2.47;;;11.90;99.90;;;;;;5094618;28;20220;-49
2022/10/08 03:30:56;;;;;;;8.20;2.43;;;11.80;99.90;;;;;;5094556;28;20212;-50
2022/10/08 03:33:24;;;;;;;7.00;2.33;;;11.80;99.90;;;;;;5094395;28;20228;-51
2022/10/08 03:35:51;;;;;;;7.67;2.60;;;11.80;99.90;;;;;;5094494;28;20208;-51
2022/10/08 03:38:18;;;;;;;7.33;2.50;;;11.70;99.90;;;;;;5094474;28;20231;-55
2022/10/08 03:40:53;;;;;;;12.87;2.63;;;11.70;99.90;;;;;;5094343;28;20238;-54
2022/10/08 03:43:20;;;;;;;13.20;3.47;;;11.60;99.90;;;;;;5094305;28;20262;-56
2022/10/08 03:45:50;;;;;;;7.10;2.77;;;11.50;99.90;;;;;;5094025;28;20250;-50
2022/10/08 03:48:17;;;;;;;12.03;3.00;;;11.50;99.90;;;;;;5093825;28;20364;-55
2022/10/08 03:50:51;;;;;;;11.17;4.20;;;11.40;99.90;;;;;;5093790;28;20207;-51
2022/10/08 03:53:17;;;;;;;19.77;3.83;;;11.30;99.90;;;;;;5094148;28;20643;-55
2022/10/08 03:55:44;;;;;;;10.50;4.10;;;11.30;99.90;;;;;;5094025;28;20638;-54
2022/10/08 03:58:11;;;;;;;15.03;4.20;;;11.30;99.90;;;;;;5093591;28;20725;-53
2022/10/08 04:00:37;;;;;;;10.73;5.10;;;11.20;99.90;;;;;;5093737;28;20857;-48
2022/10/08 04:03:04;;;;;;;6.37;3.37;;;11.20;99.90;;;;;;5093878;28;20345;-55
2022/10/08 04:05:31;;;;;;;12.37;3.80;;;11.20;99.90;;;;;;5093990;28;20216;-55
2022/10/08 04:07:59;;;;;;;9.57;3.70;;;11.20;99.90;;;;;;5093778;28;20281;-56
2022/10/08 04:10:25;;;;;;;9.90;4.33;;;11.20;99.90;;;;;;5093846;28;20208;-56
2022/10/08 04:12:52;;;;;;;12.73;4.53;;;11.10;99.90;;;;;;5093847;28;20270;-55
2022/10/08 04:15:19;;;;;;;11.90;4.13;;;11.10;99.90;;;;;;5093740;28;20210;-54
2022/10/08 04:17:46;;;;;;;12.47;4.50;;;11.10;99.90;;;;;;5093468;28;20300;-55
2022/10/08 04:20:12;;;;;;;7.50;4.20;;;11.00;99.90;;;;;;5093693;28;20208;-55
2022/10/08 04:22:39;;;;;;;8.77;4.50;;;11.00;99.90;;;;;;5093921;28;20204;-56
2022/10/08 04:25:07;;;;;;;10.23;4.23;;;11.00;99.90;;;;;;5093461;28;20208;-56
2022/10/08 04:27:34;;;;;;;15.87;5.83;;;10.90;99.90;;;;;;5093301;28;20287;-53
2022/10/08 04:30:01;;;;;;;9.40;4.67;;;10.80;99.90;;;;;;5093313;28;20630;-55
2022/10/08 04:32:27;;;;;;;16.40;4.97;;;10.80;99.90;;;;;;5092684;28;20224;-56
2022/10/08 04:34:54;;;;;;;11.90;4.50;;;10.70;99.90;;;;;;5093560;28;20208;-56
2022/10/08 04:37:21;;;;;;;11.40;4.87;;;10.70;99.90;;;;;;5093291;28;20212;-55
2022/10/08 04:39:48;;;;;;;9.47;5.07;;;10.70;99.90;;;;;;5093236;28;20263;-56
2022/10/08 04:42:16;;;;;;;10.03;5.17;;;10.60;99.90;;;;;;5093106;28;20560;-54
2022/10/08 04:44:43;;;;;;;15.40;5.37;;;10.70;99.90;;;;;;5093376;28;20208;-55
2022/10/08 04:47:09;;;;;;;14.47;5.03;;;10.70;99.90;;;;;;5092821;28;20215;-56
2022/10/08 04:49:36;;;;;;;15.93;5.83;;;10.70;99.90;;;;;;5093194;28;20228;-56
2022/10/08 04:52:02;;;;;;;9.47;5.43;;;10.60;99.90;;;;;;5093514;28;20212;-55
2022/10/08 04:54:29;;;;;;;12.90;5.60;;;10.60;99.90;;;;;;5093271;28;20656;-52
2022/10/08 04:56:56;;;;;;;17.33;5.70;;;10.70;99.90;;;;;;5093033;28;20208;-54
2022/10/08 04:59:24;;;;;;;10.83;5.80;;;10.70;99.90;;;;;;5093687;28;20220;-53
2022/10/08 05:01:51;;;;;;;14.30;6.40;;;10.70;99.90;;;;;;5093191;28;20208;-55
2022/10/08 05:04:18;;;;;;;13.90;6.03;;;10.70;99.90;;;;;;5092870;28;20761;-50
2022/10/08 05:06:45;;;;;;;15.00;5.73;;;10.70;99.90;;;;;;5092463;28;20204;-51
2022/10/08 05:09:11;;;;;;;14.60;6.30;;;10.60;99.90;;;;;;5092658;28;20277;-50
2022/10/08 05:11:38;;;;;;;13.87;7.33;;;10.60;99.90;;;;;;5092671;28;20204;-50
2022/10/08 05:14:05;;;;;;;18.13;7.03;;;10.70;99.90;;;;;;5092701;28;20281;-53
2022/10/08 05:16:33;;;;;;;13.57;7.17;;;10.70;99.90;;;;;;5092488;28;20216;-55
2022/10/08 05:18:59;;;;;;;16.53;9.30;;;10.70;99.90;;;;;;5092410;28;20239;-52
2022/10/08 05:21:28;;;;;;;14.67;8.20;;;10.70;99.90;;;;;;5092653;28;20204;-54
2022/10/08 05:23:56;;;;;;;13.03;8.50;;;10.70;99.90;;;;;;5092305;28;20246;-54
2022/10/08 05:26:25;;;;;;;16.13;9.13;;;10.80;99.90;;;;;;5092276;28;20212;-56
2022/10/08 05:28:54;;;;;;;17.60;8.70;;;10.80;99.90;;;;;;5092360;28;20228;-54
2022/10/08 05:31:21;;;;;;;13.77;8.50;;;10.80;99.90;;;;;;5092496;28;20206;-56
2022/10/08 05:33:50;;;;;;;16.83;8.23;;;10.80;99.90;;;;;;5091546;28;20220;-53
2022/10/08 05:36:20;;;;;;;16.97;8.67;;;10.70;99.90;;;;;;5092200;28;20218;-56
2022/10/08 05:38:47;;;;;;;14.87;8.40;;;10.70;99.90;;;;;;5091995;28;20654;-52
2022/10/08 05:41:16;;;;;;;16.30;8.63;;;10.70;99.90;;;;;;5092421;28;20207;-53
2022/10/08 05:43:43;;;;;;;13.93;8.37;;;10.60;99.90;;;;;;5091362;28;20265;-52
2022/10/08 05:46:10;;;;;;;18.97;8.27;;;10.70;99.90;;;;;;5091931;28;20204;-55
2022/10/08 05:48:37;;;;;;;12.83;8.30;;;10.70;99.90;;;;;;5091912;28;20227;-51
2022/10/08 05:51:06;;;;;;;14.53;7.60;;;10.70;99.90;;;;;;5092033;28;20204;-52
2022/10/08 05:53:35;;;;;;;18.77;8.50;;;10.70;99.90;;;;;;5092084;28;20231;-50
2022/10/08 05:56:03;;;;;;;20.90;8.73;;;10.60;99.90;;;;;;5092048;28;20287;-53
2022/10/08 05:58:29;;;;;;;16.57;8.10;;;10.70;99.90;;;;;;5091927;28;20224;-49
2022/10/08 06:00:57;;;;;;;17.13;8.13;;;10.70;99.90;;;;;;5091995;28;20215;-50
2022/10/08 06:03:24;;;;;;;15.47;7.90;;;10.70;99.90;;;;;;5091902;28;20291;-53
2022/10/08 06:05:51;;;;;;;15.03;7.33;;;10.70;99.90;;;;;;5091790;28;20249;-49
2022/10/08 06:08:19;;;;;;;17.67;7.23;;;10.70;99.90;;;;;;5091987;28;20224;-55
2022/10/08 06:10:50;;;;;;;16.43;8.07;;;10.70;99.90;;;;;;5092045;28;20212;-51
2022/10/08 06:13:17;;;;;;;12.73;7.40;;;10.70;99.90;;;;;;5091738;28;20231;-53
2022/10/08 06:15:44;;;;;;;12.80;7.53;;;10.70;99.90;;;;;;5091820;28;20258;-49
2022/10/08 06:18:10;;;;;;;16.03;6.97;;;10.70;99.90;;;;;;5091363;28;20223;-53
2022/10/08 06:20:37;;;;;;;14.80;7.00;;;10.70;99.90;;;;;;5091989;28;20215;-54
2022/10/08 06:23:04;;;;;;;17.70;7.03;;;10.70;99.90;;;;;;5091606;28;20196;-51
2022/10/08 06:25:36;;;;;;;13.07;7.17;;;10.80;99.90;;;;;;5091847;28;20306;-49
2022/10/08 06:28:03;;;;;;;16.23;7.10;;;10.80;99.90;;;;;;5091459;28;20314;-48
2022/10/08 06:30:29;;;;;;;12.33;6.73;;;10.80;99.90;;;;;;5091722;28;20643;-51
2022/10/08 06:32:56;;;;;;;12.13;6.63;;;10.80;99.90;;;;;;5091255;28;20221;-49
2022/10/08 06:35:23;;;;;;;18.80;8.20;;;10.80;99.90;;;;;;5092042;28;20249;-48
2022/10/08 06:37:49;;;;;;;14.70;7.37;;;10.80;99.90;;;;;;5091928;28;20224;-52
2022/10/08 06:40:16;;;;;;;16.77;7.93;;;10.90;99.90;;;;;;5093090;28;20211;-48
2022/10/08 06:42:44;;;;;;;17.27;8.07;;;11.00;99.90;;;;;;5092818;28;20722;-56
2022/10/08 06:45:11;;;;;;;15.13;8.13;;;11.00;99.90;;;;;;5091640;28;20196;-51
2022/10/08 06:47:37;;;;;;;18.83;7.80;;;11.00;99.90;;;;;;5091170;28;20212;-53
2022/10/08 06:50:05;;;;;;;18.20;8.17;;;11.00;99.90;;;;;;5091615;28;20618;-54
2022/10/08 06:52:32;;;;;;;14.07;8.27;;;11.00;99.90;;;;;;5091760;28;20201;-54
2022/10/08 06:54:58;;;;;;;16.83;8.87;;;11.10;99.90;;;;;;5093063;28;20731;-51
2022/10/08 06:57:25;;;;;;;21.70;10.00;;;11.10;99.90;;;;;;5095074;28;20204;-55
2022/10/08 06:59:56;;;;;;;17.33;9.50;;;11.20;99.90;;;;;;5095163;28;20208;-53
2022/10/08 07:02:23;;;;;;;14.93;9.63;;;11.10;99.90;;;;;;5095453;28;20210;-50
2022/10/08 07:04:50;;;;;;;18.20;10.40;;;11.20;99.90;;;;;;5095444;28;20261;-51
2022/10/08 07:07:16;;;;;;;16.33;10.00;;;11.10;99.90;;;;;;5094839;28;20247;-55
2022/10/08 07:09:43;;;;;;;19.90;10.70;;;11.20;99.90;;;;;;5094909;28;20311;-53
2022/10/08 07:12:10;;;;;;;25.57;11.97;;;11.20;99.90;;;;;;5095032;28;20678;-54
2022/10/08 07:14:36;;;;;;;20.87;11.40;;;11.20;99.90;;;;;;5094967;28;20224;-51
2022/10/08 07:17:04;;;;;;;17.90;10.90;;;11.30;99.90;;;;;;5094853;28;20200;-49
2022/10/08 07:19:31;;;;;;;19.33;11.07;;;11.40;99.90;;;;;;5095077;28;20226;-52
2022/10/08 07:21:57;;;;;;;23.57;12.97;;;11.40;99.90;;;;;;5095075;28;20200;-51
2022/10/08 07:24:24;;;;;;;17.63;11.60;;;11.40;99.90;;;;;;5094970;28;20200;-49
2022/10/08 07:26:51;;;;;;;21.37;12.10;;;11.40;99.90;;;;;;5094594;28;20350;-53
2022/10/08 07:29:18;;;;;;;26.60;13.47;;;11.50;99.90;;;;;;5094823;28;20281;-54
2022/10/08 07:31:44;;;;;;;23.43;13.60;;;11.50;99.90;;;;;;5094955;28;20569;-54
2022/10/08 07:34:13;;;;;;;23.27;13.03;;;11.50;99.90;;;;;;5094525;28;20605;-51
2022/10/08 07:36:40;;;;;;;21.87;13.83;;;11.50;99.90;;;;;;5094451;28;20212;-49
2022/10/08 07:39:10;;;;;;;26.53;15.33;;;11.60;99.90;;;;;;5094015;28;20228;-55
2022/10/08 07:41:37;;;;;;;23.77;15.73;;;11.60;99.90;;;;;;5094159;28;20207;-49
2022/10/08 07:44:04;;;;;;;28.03;16.43;;;11.60;99.90;;;;;;5094458;28;20204;-51
2022/10/08 07:46:33;;;;;;;27.27;15.90;;;11.70;99.90;;;;;;5094003;28;20254;-53
2022/10/08 07:49:01;;;;;;;25.60;15.27;;;11.70;99.90;;;;;;5094280;28;20277;-50
2022/10/08 07:51:31;;;;;;;24.93;15.73;;;11.70;99.90;;;;;;5094231;28;20204;-52
2022/10/08 07:53:58;;;;;;;28.43;15.57;;;11.70;99.90;;;;;;5093986;28;20259;-55
2022/10/08 07:56:25;;;;;;;30.07;17.40;;;11.70;99.90;;;;;;5094248;28;20266;-51
2022/10/08 07:58:51;;;;;;;25.50;16.50;;;11.80;99.90;;;;;;5094338;28;20228;-56
2022/10/08 08:01:20;;;;;;;28.43;16.50;;;11.80;99.90;;;;;;5094179;28;20615;-52
2022/10/08 08:03:53;;;;;;;26.50;16.67;;;11.90;99.90;;;;;;5093987;28;20671;-51
2022/10/08 08:06:19;;;;;;;27.93;16.53;;;12.00;99.90;;;;;;5092994;28;20292;-51
2022/10/08 08:08:48;;;;;;;26.27;16.87;;;12.10;99.90;;;;;;5093895;28;20631;-53
2022/10/08 08:11:17;;;;;;;27.03;16.30;;;12.20;99.90;;;;;;5093997;28;20212;-56
2022/10/08 08:13:44;;;;;;;27.23;16.77;;;12.30;99.90;;;;;;5093857;28;20603;-51
2022/10/08 08:16:13;;;;;;;25.97;16.37;;;12.40;99.90;;;;;;5093682;28;20215;-56
2022/10/08 08:18:41;;;;;;;22.30;15.10;;;12.20;99.90;;;;;;5093829;28;20909;-56
2022/10/08 08:21:11;;;;;;;24.97;14.57;;;12.30;99.90;;;;;;5093452;28;20674;-50
2022/10/08 08:23:39;;;;;;;21.23;15.13;;;12.40;99.90;;;;;;5093886;28;20257;-53
2022/10/08 08:26:10;;;;;;;24.13;15.87;;;12.40;99.90;;;;;;5093378;28;20226;-51
2022/10/08 08:28:37;;;;;;;29.53;15.33;;;12.50;99.90;;;;;;5093754;28;20284;-54
2022/10/08 08:31:09;;;;;;;24.00;15.53;;;12.50;99.90;;;;;;5093473;28;20218;-55
2022/10/08 08:33:35;;;;;;;25.50;15.70;;;12.50;99.90;;;;;;5093307;28;20254;-51
2022/10/08 08:36:03;;;;;;;24.10;15.27;;;12.40;99.90;;;;;;5093005;28;20210;-53
2022/10/08 08:38:30;;;;;;;23.67;15.30;;;12.40;99.90;;;;;;5093603;28;20227;-54
2022/10/08 08:41:08;;;;;;;23.80;15.57;;;12.40;99.90;;;;;;5093525;28;20214;-55
2022/10/08 08:43:34;;;;;;;26.63;15.50;;;12.40;99.90;;;;;;5093744;28;20203;-56
2022/10/08 08:46:03;;;;;;;26.93;15.53;;;12.50;99.90;;;;;;5093081;28;20218;-54
2022/10/08 08:48:32;;;;;;;22.23;14.70;;;12.60;99.90;;;;;;5093583;28;20254;-53
2022/10/08 08:51:03;;;;;;;26.20;15.77;;;12.60;99.90;;;;;;5093658;28;20207;-53
2022/10/08 08:53:30;;;;;;;21.70;14.97;;;12.70;99.90;;;;;;5093411;28;20234;-54
2022/10/08 08:55:59;;;;;;;23.20;14.17;;;12.80;99.90;;;;;;5092592;28;20704;-51
2022/10/08 08:58:35;;;;;;;26.43;14.20;;;12.70;99.90;;;;;;5093076;28;20286;-54
2022/10/08 09:01:12;;;;;;;20.57;13.13;;;12.80;99.90;;;;;;5092951;28;20638;-60
2022/10/08 09:03:43;;;;;;;23.13;13.17;;;12.80;99.90;;;;;;5093020;28;20237;-59
2022/10/08 09:06:14;;;;;;;20.23;12.80;;;12.90;99.90;;;;;;5092499;28;20212;-56
2022/10/08 09:08:45;;;;;;;22.17;13.17;;;13.10;99.90;;;;;;5092822;28;20232;-55
2022/10/08 09:11:14;;;;;;;22.70;12.30;;;13.10;99.90;;;;;;5092502;28;20302;-55
2022/10/08 09:13:47;;;;;;;26.97;13.23;;;13.20;99.90;;;;;;5092629;28;20224;-55
2022/10/08 09:16:15;;;;;;;19.03;12.80;;;13.40;99.90;;;;;;5092608;28;20314;-53
2022/10/08 09:18:44;;;;;;;23.40;12.37;;;13.40;99.90;;;;;;5092170;28;20714;-53
2022/10/08 09:21:11;;;;;;;20.97;11.63;;;13.50;99.90;;;;;;5092455;28;20216;-54
2022/10/08 09:23:38;;;;;;;20.47;11.37;;;13.60;99.90;;;;;;5092347;28;20204;-54
2022/10/08 09:26:15;;;;;;;18.13;11.03;;;13.50;99.90;;;;;;5092190;28;20285;-54
2022/10/08 09:28:45;;;;;;;21.03;11.43;;;13.40;99.90;;;;;;5092498;28;20602;-55
2022/10/08 09:31:19;;;;;;;16.83;10.83;;;13.50;99.90;;;;;;5092354;28;20249;-50
2022/10/08 09:33:54;;;;;;;15.90;10.17;;;13.60;99.90;;;;;;5092550;28;20318;-49
2022/10/08 09:36:29;;;;;;;17.93;9.63;;;13.60;99.90;;;;;;5092023;28;20213;-52
2022/10/08 09:38:58;;;;;;;18.37;9.60;;;13.50;99.90;;;;;;5092331;28;20238;-51
2022/10/08 09:41:27;;;;;;;18.60;9.77;;;13.60;99.90;;;;;;5092199;28;20231;-48
2022/10/08 09:44:13;;;;;;;14.33;8.93;;;13.60;99.90;;;;;;5092196;28;20222;-53
2022/10/08 09:46:40;;;;;;;16.43;8.43;;;13.60;99.90;;;;;;5091818;28;20204;-51
2022/10/08 09:49:28;;;;;;;16.80;7.83;;;13.60;99.90;;;;;;5091844;28;20224;-48
2022/10/08 09:51:56;;;;;;;12.13;7.37;;;13.70;99.90;;;;;;5078451;28;20597;-50
2022/10/08 09:54:26;;;;;;;19.13;6.77;;;13.70;99.90;;;;;;5091362;28;20231;-50
2022/10/08 09:56:56;;;;;;;11.37;6.67;;;13.80;99.90;;;;;;5091351;28;20204;-48
2022/10/08 09:59:27;;;;;;;11.53;6.83;;;13.90;99.90;;;;;;5092228;28;20274;-57
2022/10/08 10:01:54;;;;;;;12.97;6.20;;;14.10;99.90;;;;;;5094488;28;20208;-59
2022/10/08 10:04:31;;;;;;;12.23;6.10;;;14.50;99.90;;;;;;5093885;28;20265;-55
2022/10/08 10:06:59;;;;;;;11.07;5.73;;;14.70;99.90;;;;;;5090814;28;20204;-59
2022/10/08 10:09:33;;;;;;;11.27;5.07;;;14.90;99.90;;;;;;5091209;28;20707;-59
2022/10/08 10:12:06;;;;;;;8.73;4.97;;;15.00;93.20;;;;;;5091363;28;20204;-56
2022/10/08 10:14:42;;;;;;;8.43;5.03;;;15.10;96.40;;;;;;5091379;28;20223;-58
2022/10/08 10:17:15;;;;;;;10.50;4.17;;;15.30;92.90;;;;;;5090942;28;20207;-56
2022/10/08 10:19:47;;;;;;;12.50;4.53;;;15.30;95.00;;;;;;5091307;28;20235;-58
2022/10/08 10:22:17;;;;;;;9.03;5.37;;;15.10;59.30;;;;;;5091089;28;20215;-56
2022/10/08 10:24:51;;;;;;;12.47;5.20;;;15.20;73.90;;;;;;5091740;28;20590;-56
2022/10/08 10:27:28;;;;;;;11.23;5.73;;;15.20;67.70;;;;;;5091362;28;20211;-58
2022/10/08 10:30:06;;;;;;;9.37;4.67;;;14.90;40.50;;;;;;5093295;28;20294;-57
2022/10/08 10:32:37;;;;;;;11.20;4.90;;;14.70;54.70;;;;;;5095421;28;20315;-53
2022/10/08 10:35:10;;;;;;;9.33;5.07;;;14.30;66.30;;;;;;5095379;28;20231;-54
2022/10/08 10:37:44;;;;;;;8.60;4.90;;;14.10;75.70;;;;;;5095007;28;20691;-58
2022/10/08 10:40:30;;;;;;;9.53;4.43;;;14.10;91.50;;;;;;5095346;28;20205;-57
2022/10/08 10:43:09;;;;;;;7.50;3.83;;;14.30;80.10;;;;;;5094427;28;20689;-53
2022/10/08 10:45:38;;;;;;;8.63;4.27;;;14.70;72.50;;;;;;5094007;28;20271;-54
2022/10/08 10:48:07;;;;;;;5.43;3.30;;;15.00;76.40;;;;;;5094756;28;20228;-52
2022/10/08 10:50:39;;;;;;;6.20;3.47;;;15.00;24.20;;;;;;5095026;28;20888;-53
2022/10/08 10:53:19;;;;;;;6.83;3.10;;;15.10;7.60;;;;;;5094310;28;20204;-55
2022/10/08 10:55:53;;;;;;;8.40;3.63;;;14.90;1.00;;;;;;5094879;28;20310;-48
2022/10/08 10:58:36;;;;;;;7.67;3.00;;;14.70;1.00;;;;;;5095104;28;20250;-55
2022/10/08 11:01:15;;;;;;;6.57;2.47;;;14.60;48.80;;;;;;5094927;28;20585;-52
2022/10/08 11:03:46;;;;;;;8.03;2.60;;;14.50;99.90;;;;;;5094202;28;20219;-53
2022/10/08 11:06:34;;;;;;;6.57;2.50;;;14.40;1.00;;;;;;5094834;28;20253;-57
2022/10/08 11:09:06;;;;;;;4.10;2.20;;;14.40;99.90;;;;;;5094675;28;20224;-52
2022/10/08 11:11:40;;;;;;;4.67;2.37;;;14.30;99.90;;;;;;5094380;28;20663;-55
2022/10/08 11:14:21;;;;;;;5.27;2.67;;;14.30;99.90;;;;;;5094104;28;20679;-54
2022/10/08 11:17:00;;;;;;;5.50;3.10;;;14.40;99.90;;;;;;5094536;28;20208;-60
2022/10/08 11:19:39;;;;;;;5.63;2.70;;;14.40;99.90;;;;;;5094183;28;20277;-51
2022/10/08 11:22:13;;;;;;;5.67;2.53;;;14.40;9.00;;;;;;5094241;28;20235;-55
2022/10/08 11:24:53;;;;;;;7.17;2.90;;;14.30;1.00;;;;;;5094790;28;20624;-55
2022/10/08 11:27:32;;;;;;;6.50;2.47;;;14.30;99.90;;;;;;5094642;28;20216;-55
2022/10/08 11:30:05;;;;;;;5.93;2.43;;;14.20;1.00;;;;;;5094829;28;20250;-54
2022/10/08 11:32:34;;;;;;;5.27;2.40;;;14.10;99.90;;;;;;5094280;28;20204;-56
2022/10/08 11:35:16;;;;;;;4.23;1.90;;;14.00;1.00;;;;;;5094268;28;20228;-54
2022/10/08 11:37:50;;;;;;;5.00;1.70;;;14.00;1.00;;;;;;5094322;28;20216;-50
2022/10/08 11:40:23;;;;;;;7.17;1.70;;;13.90;99.90;;;;;;5093657;28;20215;-53
2022/10/08 11:42:57;;;;;;;5.23;1.57;;;13.70;99.90;;;;;;5093222;28;20226;-56
2022/10/08 11:45:37;;;;;;;3.40;1.60;;;13.70;99.90;;;;;;5093964;28;20230;-58
2022/10/08 11:48:33;;;;;;;3.57;1.50;;;13.60;99.90;;;;;;5093936;28;20228;-58
2022/10/08 11:51:32;;;;;;;4.63;1.47;;;13.50;99.90;;;;;;5073033;28;20213;-55
2022/10/08 11:54:20;;;;;;;5.13;2.00;;;13.40;1.00;;;;;;5073232;28;20208;-58
2022/10/08 11:56:50;;;;;;;3.53;1.50;;;13.40;11.70;;;;;;5073685;28;20205;-52
2022/10/08 11:59:29;;;;;;;3.67;1.40;;;13.40;1.00;;;;;;5074522;28;20729;-54
2022/10/08 12:01:58;;;;;;;4.60;1.53;;;13.70;1.00;;;;;;5073762;28;20258;-53
2022/10/08 12:04:30;;;;;;;2.03;1.33;;;14.00;99.90;;;;;;5074115;28;20205;-54
2022/10/08 12:07:05;;;;;;;3.50;1.30;;;14.30;93.40;;;;;;5073745;28;20470;-56
2022/10/08 12:09:59;;;;;;;7.03;1.53;;;14.50;99.90;;;;;;5073638;28;20701;-54
2022/10/08 12:12:46;;;;;;;4.00;1.50;;;14.90;97.40;;;;;;5073699;28;20625;-55
2022/10/08 12:15:46;;;;;;;6.57;1.50;;;15.10;99.90;;;;;;5073586;28;20228;-54
2022/10/08 12:18:50;;;;;;;5.63;1.77;;;15.30;1.00;;;;;;5073197;28;20252;-51
2022/10/08 12:21:48;;;;;;;4.53;1.80;;;15.50;1.00;;;;;;5073697;28;20212;-52
2022/10/08 12:24:55;;;;;;;7.70;1.50;;;15.70;99.90;;;;;;5073518;28;20208;-51
2022/10/08 12:27:27;;;;;;;5.77;1.47;;;15.80;99.90;;;;;;5073149;28;20220;-53
2022/10/08 12:29:54;;;;;;;4.20;1.30;;;15.90;99.90;;;;;;5073103;28;20699;-54
2022/10/08 12:32:22;;;;;;;3.50;1.07;;;15.90;99.90;;;;;;5073485;28;20205;-55
2022/10/08 12:34:49;;;;;;;2.93;0.70;;;15.70;1.00;;;;;;5072961;28;20224;-52
2022/10/08 12:37:36;;;;;;;4.00;0.77;;;15.70;1.00;;;;;;5073095;28;20209;-55
2022/10/08 12:40:12;;;;;;;3.33;0.90;;;15.50;1.00;;;;;;5073410;28;20633;-57
2022/10/08 12:42:40;;;;;;;5.90;1.10;;;15.40;1.00;;;;;;5073394;28;20572;-56
2022/10/08 12:45:19;;;;;;;4.87;1.10;;;15.40;1.00;;;;;;5073376;28;20215;-51
2022/10/08 12:47:52;;;;;;;3.47;1.10;;;15.50;1.00;;;;;;5072567;28;20209;-55
2022/10/08 12:50:32;;;;;;;2.97;0.83;;;15.40;1.00;;;;;;5072833;28;20200;-54
2022/10/08 12:53:01;;;;;;;2.07;0.80;;;15.40;1.00;;;;;;5074026;28;20204;-56
2022/10/08 12:55:31;;;;;;;7.83;1.43;;;15.40;1.00;;;;;;5091230;28;20224;-55
2022/10/08 12:57:58;;;;;;;2.70;1.00;;;15.40;1.00;;;;;;5092497;28;20281;-49
2022/10/08 13:00:29;;;;;;;4.57;1.10;;;15.30;1.00;;;;;;5092557;28;20628;-54